createdAt,value
2019-04-10T00:00:39.224Z,83.89
2019-04-10T00:03:22.264Z,83.41
2019-04-10T00:05:40.933Z,81.92
2019-04-10T00:08:10.670Z,81.00
2019-04-10T00:10:40.310Z,80.80
2019-04-10T00:13:10.071Z,80.51
2019-04-10T00:15:40.263Z,80.32
2019-04-10T00:18:09.870Z,80.78
2019-04-10T00:20:39.343Z,80.15
2019-04-10T00:23:08.985Z,77.73
2019-04-10T00:25:39.211Z,77.47
2019-04-10T00:28:09.503Z,78.14
2019-04-10T00:30:39.083Z,79.88
2019-04-10T00:33:08.580Z,80.64
2019-04-10T00:35:39.340Z,81.49
2019-04-10T00:38:09.295Z,82.02
2019-04-10T00:40:39.496Z,82.27
2019-04-10T00:43:09.036Z,82.41
2019-04-10T00:45:39.508Z,82.72
2019-04-10T00:48:09.978Z,83.20
2019-04-10T00:50:39.502Z,83.70
2019-04-10T00:53:08.998Z,84.41
2019-04-10T00:55:39.703Z,84.86
2019-04-10T00:58:09.980Z,84.82
2019-04-10T01:00:39.649Z,84.83
2019-04-10T01:03:09.386Z,84.80
2019-04-10T01:05:39.643Z,84.75
2019-04-10T01:08:09.259Z,84.95
2019-04-10T01:10:38.853Z,84.73
2019-04-10T01:13:08.433Z,84.41
2019-04-10T01:15:38.606Z,84.29
2019-04-10T01:18:08.185Z,84.24
2019-04-10T01:20:37.826Z,84.51
2019-04-10T01:23:07.903Z,84.79
2019-04-10T01:25:37.526Z,84.88
2019-04-10T01:28:07.018Z,85.49
2019-04-10T01:30:36.511Z,86.41
2019-04-10T01:33:06.268Z,86.58
2019-04-10T01:35:35.768Z,87.51
2019-04-10T01:38:06.438Z,87.98
2019-04-10T01:40:37.231Z,87.61
2019-04-10T01:43:12.945Z,86.45
2019-04-10T01:45:38.070Z,85.91
2019-04-10T01:48:07.930Z,85.14
2019-04-10T01:50:37.520Z,84.20
2019-04-10T01:53:07.036Z,83.71
2019-04-10T01:55:36.519Z,83.56
2019-04-10T01:58:08.961Z,83.62
2019-04-10T02:00:40.311Z,83.75
2019-04-10T02:03:09.860Z,83.66
2019-04-10T02:05:39.368Z,82.93
2019-04-10T02:08:12.778Z,81.79
2019-04-10T02:10:40.572Z,81.44
2019-04-10T02:13:10.100Z,80.72
2019-04-10T02:15:39.611Z,80.38
2019-04-10T02:18:09.052Z,80.60
2019-04-10T02:20:38.915Z,80.89
2019-04-10T02:23:08.609Z,81.40
2019-04-10T02:25:39.085Z,81.98
2019-04-10T02:28:09.010Z,82.96
2019-04-10T02:30:39.594Z,83.58
2019-04-10T02:33:10.707Z,84.37
2019-04-10T02:35:40.338Z,84.94
2019-04-10T02:38:27.464Z,85.02
2019-04-10T02:40:41.663Z,84.78
2019-04-10T02:43:12.519Z,84.03
2019-04-10T02:45:44.479Z,84.24
2019-04-10T02:48:15.030Z,83.83
2019-04-10T02:50:44.997Z,83.33
2019-04-10T02:53:15.330Z,83.54
2019-04-10T02:55:45.061Z,83.76
2019-04-10T02:58:15.931Z,84.17
2019-04-10T03:00:46.362Z,84.73
2019-04-10T03:03:16.077Z,84.95
2019-04-10T03:05:46.669Z,85.03
2019-04-10T03:08:17.363Z,84.84
2019-04-10T03:10:51.777Z,84.58
2019-04-10T03:13:19.679Z,83.92
2019-04-10T03:15:49.822Z,83.60
2019-04-10T03:18:20.890Z,83.30
2019-04-10T03:20:50.954Z,83.17
2019-04-10T03:23:21.103Z,83.16
2019-04-10T03:25:50.972Z,82.70
2019-04-10T03:28:20.616Z,82.54
2019-04-10T03:30:50.136Z,82.48
2019-04-10T03:33:45.450Z,82.53
2019-04-10T03:36:13.552Z,82.37
2019-04-10T03:38:55.327Z,82.34
2019-04-10T03:41:14.384Z,82.04
2019-04-10T03:43:43.928Z,82.08
2019-04-10T03:46:13.407Z,82.26
2019-04-10T03:48:42.864Z,82.65
2019-04-10T03:51:12.445Z,82.65
2019-04-10T03:53:42.538Z,82.46
2019-04-10T03:56:12.066Z,82.58
2019-04-10T03:58:41.882Z,83.14
2019-04-10T04:01:11.681Z,83.76
2019-04-10T04:03:41.210Z,83.98
2019-04-10T04:06:11.156Z,83.79
2019-04-10T04:08:40.791Z,84.04
2019-04-10T04:11:10.320Z,84.03
2019-04-10T04:13:40.183Z,83.62
2019-04-10T04:16:10.817Z,83.67
2019-04-10T04:18:41.309Z,84.36
2019-04-10T04:21:11.773Z,84.78
2019-04-10T04:23:41.362Z,84.94
2019-04-10T04:26:10.884Z,84.58
2019-04-10T04:28:40.476Z,84.35
2019-04-10T04:31:10.060Z,84.00
2019-04-10T04:33:39.588Z,83.65
2019-04-10T04:36:10.243Z,83.25
2019-04-10T04:38:41.007Z,83.26
2019-04-10T04:41:11.114Z,84.08
2019-04-10T04:43:42.411Z,84.51
2019-04-10T04:46:12.098Z,84.18
2019-04-10T04:48:41.566Z,84.17
2019-04-10T04:51:11.286Z,84.06
2019-04-10T04:53:41.817Z,83.70
2019-04-10T04:56:11.571Z,83.28
2019-04-10T04:58:41.103Z,83.36
2019-04-10T05:01:10.624Z,82.53
2019-04-10T05:03:40.189Z,82.42
2019-04-10T05:06:09.742Z,81.33
2019-04-10T05:08:39.925Z,81.17
2019-04-10T05:11:09.824Z,80.95
2019-04-10T05:13:40.269Z,80.25
2019-04-10T05:16:10.179Z,79.67
2019-04-10T05:18:39.754Z,79.63
2019-04-10T05:21:09.261Z,79.49
2019-04-10T05:23:38.781Z,79.12
2019-04-10T05:26:08.322Z,79.06
2019-04-10T05:28:38.138Z,79.00
2019-04-10T05:31:08.715Z,78.46
2019-04-10T05:33:38.695Z,78.39
2019-04-10T05:36:08.925Z,77.86
2019-04-10T05:38:38.472Z,77.72
2019-04-10T05:41:09.079Z,77.10
2019-04-10T05:43:38.679Z,77.71
2019-04-10T05:46:08.221Z,78.14
2019-04-10T05:48:37.786Z,77.38
2019-04-10T05:51:08.757Z,77.85
2019-04-10T05:53:38.820Z,76.97
2019-04-10T05:56:08.539Z,77.06
2019-04-10T05:58:38.682Z,76.90
2019-04-10T06:01:09.525Z,76.69
2019-04-10T06:03:39.063Z,76.36
2019-04-10T06:06:08.601Z,76.88
2019-04-10T06:08:38.054Z,77.40
2019-04-10T06:11:08.615Z,77.86
2019-04-10T06:13:38.800Z,76.80
2019-04-10T06:16:09.669Z,76.88
2019-04-10T06:18:39.608Z,76.51
2019-04-10T06:21:10.410Z,76.42
2019-04-10T06:23:40.042Z,75.25
2019-04-10T06:26:10.227Z,75.44
2019-04-10T06:28:40.136Z,75.48
2019-04-10T06:31:09.704Z,75.98
2019-04-10T06:33:40.300Z,76.20
2019-04-10T06:36:09.800Z,75.62
2019-04-10T06:38:39.334Z,75.00
2019-04-10T06:41:08.843Z,74.90
2019-04-10T06:43:39.246Z,74.63
2019-04-10T06:46:08.779Z,74.94
2019-04-10T06:48:38.471Z,75.16
2019-04-10T06:51:08.246Z,74.45
2019-04-10T06:53:37.789Z,74.38
2019-04-10T06:56:07.335Z,73.52
2019-04-10T06:58:36.836Z,75.67
2019-04-10T07:01:06.445Z,76.25
2019-04-10T07:03:50.757Z,76.01
2019-04-10T07:06:14.381Z,75.70
2019-04-10T07:08:38.653Z,75.50
2019-04-10T07:11:10.582Z,74.46
2019-04-10T07:13:40.479Z,73.73
2019-04-10T07:16:11.305Z,72.53
2019-04-10T07:18:45.847Z,72.20
2019-04-10T07:21:13.254Z,72.53
2019-04-10T07:23:42.905Z,71.93
2019-04-10T07:26:18.487Z,71.71
2019-04-10T07:28:45.706Z,71.26
2019-04-10T07:31:14.864Z,71.13
2019-04-10T07:33:45.148Z,71.33
2019-04-10T07:36:16.103Z,70.69
2019-04-10T07:38:46.783Z,69.03
2019-04-10T07:41:21.229Z,68.83
2019-04-10T07:43:53.556Z,68.37
2019-04-10T07:46:18.793Z,66.89
2019-04-10T07:48:48.322Z,66.33
2019-04-10T07:51:18.994Z,66.24
2019-04-10T07:53:49.176Z,66.06
2019-04-10T07:56:20.765Z,66.10
2019-04-10T07:58:49.993Z,65.96
2019-04-10T08:01:19.492Z,66.97
2019-04-10T08:03:52.151Z,67.67
2019-04-10T08:06:20.292Z,67.26
2019-04-10T08:08:49.793Z,65.84
2019-04-10T08:11:19.778Z,64.85
2019-04-10T08:13:49.311Z,64.47
2019-04-10T08:16:19.025Z,64.32
2019-04-10T08:18:48.557Z,63.96
2019-04-10T08:21:18.056Z,63.94
2019-04-10T08:23:48.541Z,65.17
2019-04-10T08:26:18.364Z,65.38
2019-04-10T08:28:47.929Z,64.52
2019-04-10T08:31:17.443Z,64.01
2019-04-10T08:33:46.961Z,62.56
2019-04-10T08:36:16.506Z,62.97
2019-04-10T08:38:46.682Z,61.86
2019-04-10T08:41:17.160Z,61.73
2019-04-10T08:43:46.807Z,60.96
2019-04-10T08:46:16.377Z,60.54
2019-04-10T08:48:45.879Z,60.42
2019-04-10T08:51:15.399Z,60.05
2019-04-10T08:53:44.991Z,60.07
2019-04-10T08:56:14.523Z,60.63
2019-04-10T08:58:44.023Z,60.76
2019-04-10T09:01:13.540Z,61.08
2019-04-10T09:03:43.397Z,59.62
2019-04-10T09:06:13.367Z,58.79
2019-04-10T09:08:43.606Z,58.55
2019-04-10T09:11:13.174Z,57.47
2019-04-10T09:13:42.693Z,57.65
2019-04-10T09:16:12.300Z,57.44
2019-04-10T09:18:41.799Z,57.67
2019-04-10T09:21:11.306Z,57.57
2019-04-10T09:23:47.365Z,57.35
2019-04-10T09:26:12.012Z,56.62
2019-04-10T09:28:42.433Z,56.09
2019-04-10T09:31:11.994Z,55.93
2019-04-10T09:33:41.488Z,55.10
2019-04-10T09:36:11.269Z,54.43
2019-04-10T09:38:41.055Z,55.16
2019-04-10T09:41:10.615Z,55.27
2019-04-10T09:43:40.158Z,55.16
2019-04-10T09:46:10.117Z,55.25
2019-04-10T09:48:40.688Z,55.29
2019-04-10T09:51:10.222Z,55.07
2019-04-10T09:53:39.736Z,55.09
2019-04-10T09:56:09.559Z,54.48
2019-04-10T09:58:39.126Z,54.06
2019-04-10T10:01:14.718Z,52.96
2019-04-10T10:03:44.588Z,53.65
2019-04-10T10:06:25.320Z,54.02
2019-04-10T10:08:45.433Z,53.48
2019-04-10T10:11:14.954Z,53.45
2019-04-10T10:13:44.453Z,52.88
2019-04-10T10:16:14.762Z,52.98
2019-04-10T10:18:44.396Z,53.07
2019-04-10T10:21:14.427Z,53.77
2019-04-10T10:23:44.677Z,53.23
2019-04-10T10:26:14.191Z,52.47
2019-04-10T10:28:43.695Z,51.39
2019-04-10T10:31:13.722Z,50.80
2019-04-10T10:33:43.286Z,50.01
2019-04-10T10:36:13.701Z,49.94
2019-04-10T10:38:43.465Z,50.83
2019-04-10T10:41:13.087Z,51.07
2019-04-10T10:43:42.671Z,50.91
2019-04-10T10:46:13.377Z,50.93
2019-04-10T10:48:44.097Z,50.79
2019-04-10T10:51:14.670Z,51.63
2019-04-10T10:53:44.507Z,51.50
2019-04-10T10:56:14.095Z,50.33
2019-04-10T10:58:43.948Z,48.92
2019-04-10T11:01:13.725Z,49.14
2019-04-10T11:03:44.356Z,49.64
2019-04-10T11:06:14.932Z,48.88
2019-04-10T11:08:46.017Z,48.45
2019-04-10T11:11:16.997Z,47.57
2019-04-10T11:13:46.974Z,47.15
2019-04-10T11:16:17.086Z,47.24
2019-04-10T11:18:46.944Z,46.86
2019-04-10T11:21:20.687Z,46.53
2019-04-10T11:23:50.886Z,46.67
2019-04-10T11:26:23.993Z,46.82
2019-04-10T11:28:53.057Z,46.91
2019-04-10T11:31:23.761Z,47.18
2019-04-10T11:33:56.403Z,47.33
2019-04-10T11:36:25.993Z,47.73
2019-04-10T11:39:05.001Z,48.40
2019-04-10T11:41:29.499Z,49.00
2019-04-10T11:43:58.254Z,48.84
2019-04-10T11:46:31.073Z,49.10
2019-04-10T11:49:00.771Z,49.61
2019-04-10T11:51:32.351Z,48.63
2019-04-10T11:54:04.474Z,47.04
2019-04-10T11:56:34.312Z,46.48
2019-04-10T11:59:07.022Z,46.06
2019-04-10T12:01:36.836Z,47.18
2019-04-10T12:04:09.807Z,46.72
2019-04-10T12:06:40.339Z,46.04
2019-04-10T12:09:57.137Z,46.51
2019-04-10T12:11:48.859Z,46.66
2019-04-10T12:14:19.343Z,45.90
2019-04-10T12:16:49.463Z,45.77
2019-04-10T12:19:19.348Z,45.80
2019-04-10T12:21:48.968Z,45.90
2019-04-10T12:24:18.491Z,45.42
2019-04-10T12:26:48.025Z,45.48
2019-04-10T12:29:18.366Z,45.84
2019-04-10T12:31:48.200Z,45.88
2019-04-10T12:34:18.231Z,45.59
2019-04-10T12:36:48.940Z,45.11
2019-04-10T12:39:18.593Z,46.01
2019-04-10T12:41:48.296Z,47.01
2019-04-10T12:44:17.871Z,47.29
2019-04-10T12:46:47.424Z,47.41
2019-04-10T12:49:17.174Z,48.19
2019-04-10T12:51:46.797Z,48.99
2019-04-10T12:54:17.201Z,49.64
2019-04-10T12:56:46.934Z,49.72
2019-04-10T12:59:17.343Z,49.55
2019-04-10T13:01:47.103Z,49.34
2019-04-10T13:04:16.548Z,49.45
2019-04-10T13:06:46.420Z,48.69
2019-04-10T13:09:16.118Z,48.53
2019-04-10T13:11:46.816Z,48.50
2019-04-10T13:14:16.887Z,48.89
2019-04-10T13:16:46.512Z,49.35
2019-04-10T13:19:16.614Z,49.44
2019-04-10T13:21:46.709Z,50.08
2019-04-10T13:24:17.311Z,50.60
2019-04-10T13:26:46.911Z,50.96
2019-04-10T13:29:16.531Z,51.10
2019-04-10T13:31:46.698Z,51.48
2019-04-10T13:34:18.166Z,51.45
2019-04-10T13:36:48.091Z,51.45
2019-04-10T13:39:18.989Z,51.87
2019-04-10T13:41:49.077Z,52.23
2019-04-10T13:44:18.596Z,51.93
2019-04-10T13:46:49.062Z,52.01
2019-04-10T13:49:19.916Z,52.01
2019-04-10T13:51:50.233Z,51.90
2019-04-10T13:54:20.733Z,51.60
2019-04-10T13:56:50.410Z,51.78
2019-04-10T13:59:20.702Z,51.82
2019-04-10T14:01:50.308Z,52.38
2019-04-10T14:04:19.989Z,52.46
2019-04-10T14:06:49.673Z,52.60
2019-04-10T14:09:34.957Z,53.01
2019-04-10T14:11:51.380Z,53.34
2019-04-10T14:14:21.373Z,53.72
2019-04-10T14:16:51.012Z,54.42
2019-04-10T14:19:21.416Z,54.58
2019-04-10T14:21:51.320Z,54.83
2019-04-10T14:24:21.970Z,54.94
2019-04-10T14:27:00.171Z,55.39
2019-04-10T14:29:30.175Z,55.18
2019-04-10T14:32:02.818Z,55.17
2019-04-10T14:34:32.532Z,55.80
2019-04-10T14:37:03.002Z,56.52
2019-04-10T14:39:33.561Z,56.91
2019-04-10T14:42:04.385Z,57.01
2019-04-10T14:44:34.837Z,57.06
2019-04-10T14:47:06.522Z,57.29
2019-04-10T14:49:36.138Z,56.94
2019-04-10T14:52:05.669Z,56.98
2019-04-10T14:54:35.931Z,56.21
2019-04-10T14:57:06.505Z,55.77
2019-04-10T14:59:36.289Z,55.46
2019-04-10T15:02:08.489Z,55.37
2019-04-10T15:04:38.077Z,55.48
2019-04-10T15:07:08.047Z,55.62
2019-04-10T15:09:37.826Z,55.50
2019-04-10T15:12:09.908Z,55.62
2019-04-10T15:14:39.575Z,55.94
2019-04-10T15:17:09.587Z,55.60
2019-04-10T15:19:40.548Z,55.29
2019-04-10T15:22:10.289Z,55.26
2019-04-10T15:24:41.103Z,55.02
2019-04-10T15:27:11.151Z,54.68
2019-04-10T15:29:40.918Z,54.01
2019-04-10T15:32:10.718Z,53.87
2019-04-10T15:34:40.409Z,53.62
2019-04-10T15:37:11.015Z,53.12
2019-04-10T15:39:42.959Z,53.47
2019-04-10T15:42:12.239Z,53.48
2019-04-10T15:44:42.791Z,53.75
2019-04-10T15:47:19.171Z,54.19
2019-04-10T15:49:44.940Z,54.04
2019-04-10T15:52:14.986Z,54.25
2019-04-10T15:54:45.867Z,54.50
2019-04-10T15:57:16.387Z,54.65
2019-04-10T15:59:46.847Z,54.59
2019-04-10T16:02:16.495Z,54.50
2019-04-10T16:04:46.030Z,54.58
2019-04-10T16:07:16.152Z,54.39
2019-04-10T16:09:50.713Z,54.34
2019-04-10T16:12:19.070Z,54.45
2019-04-10T16:14:48.710Z,54.48
2019-04-10T16:17:39.999Z,54.64
2019-04-10T16:20:34.554Z,55.55
2019-04-10T16:23:13.969Z,55.51
2019-04-10T16:25:47.295Z,55.24
2019-04-10T16:28:17.907Z,55.03
2019-04-10T16:30:48.646Z,55.39
2019-04-10T16:33:18.869Z,55.45
2019-04-10T16:35:48.543Z,55.18
2019-04-10T16:38:18.411Z,55.18
2019-04-10T16:40:48.152Z,55.19
2019-04-10T16:43:17.712Z,55.28
2019-04-10T16:45:49.110Z,56.46
2019-04-10T16:48:18.933Z,56.31
2019-04-10T16:50:49.731Z,56.02
2019-04-10T16:53:20.131Z,55.74
2019-04-10T16:55:49.725Z,55.94
2019-04-10T16:58:20.037Z,56.26
2019-04-10T17:00:50.031Z,56.60
2019-04-10T17:03:20.445Z,57.73
2019-04-10T17:05:50.292Z,56.79
2019-04-10T17:08:19.999Z,57.04
2019-04-10T17:10:50.567Z,57.66
2019-04-10T17:13:20.333Z,57.27
2019-04-10T17:15:50.260Z,57.25
2019-04-10T17:18:21.319Z,57.07
2019-04-10T17:20:51.038Z,57.16
2019-04-10T17:23:20.669Z,57.35
2019-04-10T17:25:50.757Z,57.77
2019-04-10T17:28:22.103Z,57.78
2019-04-10T17:30:51.955Z,57.81
2019-04-10T17:33:21.711Z,57.61
2019-04-10T17:35:51.798Z,57.23
2019-04-10T17:38:22.619Z,57.75
2019-04-10T17:40:55.548Z,59.46
2019-04-10T17:43:23.701Z,59.14
2019-04-10T17:45:53.304Z,58.54
2019-04-10T17:48:23.175Z,57.76
2019-04-10T17:50:55.370Z,56.35
2019-04-10T17:53:27.274Z,55.77
2019-04-10T17:56:00.059Z,55.68
2019-04-10T17:58:31.653Z,55.75
2019-04-10T18:01:05.251Z,56.39
2019-04-10T18:03:46.113Z,56.81
2019-04-10T18:06:08.935Z,56.87
2019-04-10T18:08:38.904Z,56.73
2019-04-10T18:11:08.451Z,56.59
2019-04-10T18:13:38.516Z,57.10
2019-04-10T18:16:08.523Z,57.41
2019-04-10T18:18:38.280Z,58.08
2019-04-10T18:21:08.630Z,58.80
2019-04-10T18:23:39.759Z,58.83
2019-04-10T18:26:09.406Z,58.97
2019-04-10T18:28:38.877Z,58.87
2019-04-10T18:31:08.407Z,59.14
2019-04-10T18:33:38.468Z,60.08
2019-04-10T18:36:08.838Z,59.44
2019-04-10T18:38:38.969Z,59.05
2019-04-10T18:41:09.740Z,59.31
2019-04-10T18:43:40.333Z,59.58
2019-04-10T18:46:13.405Z,60.25
2019-04-10T18:48:43.904Z,60.52
2019-04-10T18:51:12.592Z,61.12
2019-04-10T18:53:42.834Z,61.45
2019-04-10T18:56:13.616Z,61.75
2019-04-10T18:58:58.399Z,62.77
2019-04-10T19:01:51.484Z,63.20
2019-04-10T19:04:49.774Z,63.88
2019-04-10T19:07:20.810Z,64.62
2019-04-10T19:09:50.753Z,64.85
2019-04-10T19:12:20.893Z,65.74
2019-04-10T19:14:51.017Z,66.96
2019-04-10T19:17:21.096Z,67.94
2019-04-10T19:19:50.891Z,68.49
2019-04-10T19:22:21.005Z,68.82
2019-04-10T19:24:50.724Z,68.93
2019-04-10T19:27:20.709Z,69.54
2019-04-10T19:29:50.766Z,69.86
2019-04-10T19:32:24.759Z,69.84
2019-04-10T19:34:54.819Z,70.07
2019-04-10T19:37:24.977Z,70.46
2019-04-10T19:39:54.836Z,70.57
2019-04-10T19:42:24.998Z,71.01
2019-04-10T19:44:55.745Z,71.33
2019-04-10T19:47:26.311Z,71.35
2019-04-10T19:49:57.127Z,71.79
2019-04-10T19:52:27.072Z,72.35
2019-04-10T19:54:57.574Z,72.31
2019-04-10T19:57:27.351Z,71.74
2019-04-10T19:59:57.858Z,71.17
2019-04-10T20:02:27.506Z,71.90
2019-04-10T20:04:57.081Z,72.83
2019-04-10T20:07:27.087Z,73.52
2019-04-10T20:09:56.950Z,73.36
2019-04-10T20:12:26.787Z,73.22
2019-04-10T20:14:57.308Z,73.58
2019-04-10T20:17:27.937Z,73.65
2019-04-10T20:19:58.811Z,73.74
2019-04-10T20:22:29.383Z,73.80
2019-04-10T20:24:59.789Z,73.62
2019-04-10T20:27:29.435Z,73.04
2019-04-10T20:29:59.404Z,72.73
2019-04-10T20:32:30.062Z,72.97
2019-04-10T20:35:00.072Z,73.48
2019-04-10T20:37:29.650Z,72.74
2019-04-10T20:39:59.297Z,72.60
2019-04-10T20:42:29.911Z,72.10
2019-04-10T20:44:59.530Z,71.82
2019-04-10T20:47:29.040Z,72.08
2019-04-10T20:49:59.581Z,71.36
2019-04-10T20:52:29.129Z,72.29
2019-04-10T20:54:59.327Z,72.16
2019-04-10T20:57:29.732Z,72.47
2019-04-10T20:59:59.565Z,72.33
2019-04-10T21:02:29.226Z,70.88
2019-04-10T21:05:04.951Z,71.16
2019-04-10T21:07:29.959Z,71.08
2019-04-10T21:10:00.706Z,71.61
2019-04-10T21:12:30.463Z,72.23
2019-04-10T21:14:59.983Z,73.08
2019-04-10T21:17:29.950Z,72.98
2019-04-10T21:20:00.067Z,73.16
2019-04-10T21:22:30.733Z,73.42
2019-04-10T21:25:00.624Z,73.72
2019-04-10T21:27:30.166Z,72.30
2019-04-10T21:30:33.966Z,72.73
2019-04-10T21:33:25.588Z,73.86
2019-04-10T21:35:55.128Z,74.22
2019-04-10T21:38:24.637Z,75.10
2019-04-10T21:40:55.207Z,75.71
2019-04-10T21:43:24.799Z,75.94
2019-04-10T21:45:55.393Z,76.49
2019-04-10T21:48:24.911Z,76.45
2019-04-10T21:50:54.413Z,76.45
2019-04-10T21:53:24.245Z,76.27
2019-04-10T21:55:53.824Z,76.30
2019-04-10T21:58:24.098Z,76.67
2019-04-10T22:01:05.495Z,76.83
2019-04-10T22:03:35.850Z,77.22
2019-04-10T22:06:26.043Z,77.47
2019-04-10T22:09:18.731Z,77.59
2019-04-10T22:11:51.755Z,77.53
2019-04-10T22:14:21.507Z,77.31
2019-04-10T22:16:51.144Z,77.59
2019-04-10T22:19:20.997Z,77.86
2019-04-10T22:21:50.483Z,77.86
2019-04-10T22:24:20.047Z,77.78
2019-04-10T22:26:50.143Z,77.96
2019-04-10T22:29:19.640Z,77.98
2019-04-10T22:31:49.289Z,78.07
2019-04-10T22:34:19.158Z,78.43
2019-04-10T22:36:49.331Z,78.46
2019-04-10T22:39:18.962Z,78.12
2019-04-10T22:41:48.687Z,77.36
2019-04-10T22:44:18.161Z,76.64
2019-04-10T22:46:47.648Z,76.57
2019-04-10T22:49:18.076Z,76.52
2019-04-10T22:51:47.710Z,76.92
2019-04-10T22:54:17.915Z,76.82
2019-04-10T22:56:47.756Z,76.74
2019-04-10T22:59:17.860Z,76.51
2019-04-10T23:01:59.326Z,76.40
2019-04-10T23:04:18.582Z,76.47
2019-04-10T23:06:49.209Z,76.50
2019-04-10T23:09:20.140Z,76.63
2019-04-10T23:11:49.868Z,76.96
2019-04-10T23:14:20.663Z,77.33
2019-04-10T23:16:50.507Z,77.38
2019-04-10T23:19:20.365Z,77.37
2019-04-10T23:21:49.939Z,77.52
2019-04-10T23:24:19.426Z,77.72
2019-04-10T23:26:49.301Z,77.51
2019-04-10T23:29:20.107Z,77.52
2019-04-10T23:31:50.021Z,77.26
2019-04-10T23:34:20.836Z,77.39
2019-04-10T23:36:50.811Z,77.75
2019-04-10T23:39:20.373Z,77.96
2019-04-10T23:41:52.076Z,77.96
2019-04-10T23:44:21.126Z,77.96
2019-04-10T23:46:51.663Z,77.82
2019-04-10T23:49:21.491Z,77.69
2019-04-10T23:51:51.655Z,77.66
2019-04-10T23:54:21.473Z,77.82
2019-04-10T23:56:51.124Z,78.00
2019-04-10T23:59:20.642Z,78.31
